sensor_id;sensor_type;location;lat;lon;timestamp;temperature;humidity
35531;DHT22;21637;53.352;-6.356;2023-08-17T00:02:04;13.80;99.90
35531;DHT22;21637;53.352;-6.356;2023-08-17T00:04:30;13.70;99.90
35531;DHT22;21637;53.352;-6.356;2023-08-17T00:06:56;13.80;99.90
35531;DHT22;21637;53.352;-6.356;2023-08-17T00:09:21;13.80;99.90
35531;DHT22;21637;53.352;-6.356;2023-08-17T00:11:47;13.70;99.90
35531;DHT22;21637;53.352;-6.356;2023-08-17T00:14:13;13.70;99.90
35531;DHT22;21637;53.352;-6.356;2023-08-17T00:16:39;13.70;99.90
35531;DHT22;21637;53.352;-6.356;2023-08-17T00:19:05;13.60;99.90
35531;DHT22;21637;53.352;-6.356;2023-08-17T00:21:30;13.70;99.90
35531;DHT22;21637;53.352;-6.356;2023-08-17T00:23:57;13.60;99.90
35531;DHT22;21637;53.352;-6.356;2023-08-17T00:26:22;13.50;99.90
35531;DHT22;21637;53.352;-6.356;2023-08-17T00:28:48;13.50;99.90
35531;DHT22;21637;53.352;-6.356;2023-08-17T00:31:14;13.50;99.90
35531;DHT22;21637;53.352;-6.356;2023-08-17T00:33:39;13.50;99.90
35531;DHT22;21637;53.352;-6.356;2023-08-17T00:36:05;13.50;99.90
35531;DHT22;21637;53.352;-6.356;2023-08-17T00:38:31;13.50;99.90
35531;DHT22;21637;53.352;-6.356;2023-08-17T00:40:56;13.40;99.90
35531;DHT22;21637;53.352;-6.356;2023-08-17T00:43:23;13.50;99.90
35531;DHT22;21637;53.352;-6.356;2023-08-17T00:45:49;13.50;99.90
35531;DHT22;21637;53.352;-6.356;2023-08-17T00:48:14;13.40;99.90
35531;DHT22;21637;53.352;-6.356;2023-08-17T00:50:41;13.30;99.90
35531;DHT22;21637;53.352;-6.356;2023-08-17T00:53:07;13.40;99.90
35531;DHT22;21637;53.352;-6.356;2023-08-17T00:55:38;13.30;99.90
35531;DHT22;21637;53.352;-6.356;2023-08-17T00:58:04;13.30;99.90
35531;DHT22;21637;53.352;-6.356;2023-08-17T01:00:31;13.20;99.90
35531;DHT22;21637;53.352;-6.356;2023-08-17T01:02:57;13.30;99.90
35531;DHT22;21637;53.352;-6.356;2023-08-17T01:05:23;13.30;99.90
35531;DHT22;21637;53.352;-6.356;2023-08-17T01:07:49;13.20;99.90
35531;DHT22;21637;53.352;-6.356;2023-08-17T01:10:15;13.20;99.90
35531;DHT22;21637;53.352;-6.356;2023-08-17T01:12:52;13.20;99.90
35531;DHT22;21637;53.352;-6.356;2023-08-17T01:15:35;13.30;99.90
35531;DHT22;21637;53.352;-6.356;2023-08-17T01:18:29;13.20;99.90
35531;DHT22;21637;53.352;-6.356;2023-08-17T01:20:57;13.20;99.90
35531;DHT22;21637;53.352;-6.356;2023-08-17T01:23:23;13.30;99.90
35531;DHT22;21637;53.352;-6.356;2023-08-17T01:25:49;13.30;99.90
35531;DHT22;21637;53.352;-6.356;2023-08-17T01:28:15;13.20;99.90
35531;DHT22;21637;53.352;-6.356;2023-08-17T01:30:54;13.20;99.90
35531;DHT22;21637;53.352;-6.356;2023-08-17T01:33:29;13.20;99.90
35531;DHT22;21637;53.352;-6.356;2023-08-17T01:36:06;13.20;99.90
35531;DHT22;21637;53.352;-6.356;2023-08-17T01:38:37;13.20;99.90
35531;DHT22;21637;53.352;-6.356;2023-08-17T01:41:04;13.20;99.90
35531;DHT22;21637;53.352;-6.356;2023-08-17T01:43:31;13.20;99.90
35531;DHT22;21637;53.352;-6.356;2023-08-17T01:45:57;13.20;99.90
35531;DHT22;21637;53.352;-6.356;2023-08-17T01:48:23;13.20;99.90
35531;DHT22;21637;53.352;-6.356;2023-08-17T01:50:48;13.10;99.90
35531;DHT22;21637;53.352;-6.356;2023-08-17T01:53:14;13.20;99.90
35531;DHT22;21637;53.352;-6.356;2023-08-17T01:55:40;13.20;99.90
35531;DHT22;21637;53.352;-6.356;2023-08-17T01:58:06;13.20;99.90
35531;DHT22;21637;53.352;-6.356;2023-08-17T02:00:31;13.20;99.90
35531;DHT22;21637;53.352;-6.356;2023-08-17T02:02:57;13.20;99.90
35531;DHT22;21637;53.352;-6.356;2023-08-17T02:05:23;13.20;99.90
35531;DHT22;21637;53.352;-6.356;2023-08-17T02:07:48;13.20;99.90
35531;DHT22;21637;53.352;-6.356;2023-08-17T02:10:14;13.20;99.90
35531;DHT22;21637;53.352;-6.356;2023-08-17T02:12:40;13.20;99.90
35531;DHT22;21637;53.352;-6.356;2023-08-17T02:15:06;13.20;99.90
35531;DHT22;21637;53.352;-6.356;2023-08-17T02:17:32;13.20;99.90
35531;DHT22;21637;53.352;-6.356;2023-08-17T02:19:57;13.20;99.90
35531;DHT22;21637;53.352;-6.356;2023-08-17T02:22:23;13.20;99.90
35531;DHT22;21637;53.352;-6.356;2023-08-17T02:24:49;13.20;99.90
35531;DHT22;21637;53.352;-6.356;2023-08-17T02:27:14;13.30;99.90
35531;DHT22;21637;53.352;-6.356;2023-08-17T02:29:40;13.30;99.90
35531;DHT22;21637;53.352;-6.356;2023-08-17T02:32:06;13.20;99.90
35531;DHT22;21637;53.352;-6.356;2023-08-17T02:34:32;13.20;99.90
35531;DHT22;21637;53.352;-6.356;2023-08-17T02:36:57;13.20;99.90
35531;DHT22;21637;53.352;-6.356;2023-08-17T02:39:23;13.20;99.90
35531;DHT22;21637;53.352;-6.356;2023-08-17T02:41:49;13.20;99.90
35531;DHT22;21637;53.352;-6.356;2023-08-17T02:44:15;13.20;99.90
35531;DHT22;21637;53.352;-6.356;2023-08-17T02:46:41;13.20;99.90
35531;DHT22;21637;53.352;-6.356;2023-08-17T02:49:06;13.30;99.90
35531;DHT22;21637;53.352;-6.356;2023-08-17T02:51:32;13.20;99.90
35531;DHT22;21637;53.352;-6.356;2023-08-17T02:53:58;13.30;99.90
35531;DHT22;21637;53.352;-6.356;2023-08-17T02:56:23;13.20;99.90
35531;DHT22;21637;53.352;-6.356;2023-08-17T02:58:49;13.30;99.90
35531;DHT22;21637;53.352;-6.356;2023-08-17T03:01:15;13.30;99.90
35531;DHT22;21637;53.352;-6.356;2023-08-17T03:03:40;13.30;99.90
35531;DHT22;21637;53.352;-6.356;2023-08-17T03:06:07;13.30;99.90
35531;DHT22;21637;53.352;-6.356;2023-08-17T03:08:33;13.30;99.90
35531;DHT22;21637;53.352;-6.356;2023-08-17T03:10:58;13.40;99.90
35531;DHT22;21637;53.352;-6.356;2023-08-17T03:13:24;13.40;99.90
35531;DHT22;21637;53.352;-6.356;2023-08-17T03:15:50;13.40;99.90
35531;DHT22;21637;53.352;-6.356;2023-08-17T03:18:16;13.40;99.90
35531;DHT22;21637;53.352;-6.356;2023-08-17T03:20:43;13.40;99.90
35531;DHT22;21637;53.352;-6.356;2023-08-17T03:23:09;13.40;99.90
35531;DHT22;21637;53.352;-6.356;2023-08-17T03:25:35;13.40;99.90
35531;DHT22;21637;53.352;-6.356;2023-08-17T03:28:01;13.40;99.90
35531;DHT22;21637;53.352;-6.356;2023-08-17T03:30:26;13.50;99.90
35531;DHT22;21637;53.352;-6.356;2023-08-17T03:32:52;13.50;99.90
35531;DHT22;21637;53.352;-6.356;2023-08-17T03:35:18;13.50;99.90
35531;DHT22;21637;53.352;-6.356;2023-08-17T03:37:44;13.50;99.90
35531;DHT22;21637;53.352;-6.356;2023-08-17T03:40:10;13.50;99.90
35531;DHT22;21637;53.352;-6.356;2023-08-17T03:42:36;13.50;99.90
35531;DHT22;21637;53.352;-6.356;2023-08-17T03:45:03;13.60;99.90
35531;DHT22;21637;53.352;-6.356;2023-08-17T03:47:29;13.60;99.90
35531;DHT22;21637;53.352;-6.356;2023-08-17T03:49:54;13.50;99.90
35531;DHT22;21637;53.352;-6.356;2023-08-17T03:52:20;13.50;99.90
35531;DHT22;21637;53.352;-6.356;2023-08-17T03:54:46;13.50;99.90
35531;DHT22;21637;53.352;-6.356;2023-08-17T03:57:12;13.50;99.90
35531;DHT22;21637;53.352;-6.356;2023-08-17T03:59:38;13.50;99.90
35531;DHT22;21637;53.352;-6.356;2023-08-17T04:02:04;13.50;99.90
35531;DHT22;21637;53.352;-6.356;2023-08-17T04:04:29;13.50;99.90
35531;DHT22;21637;53.352;-6.356;2023-08-17T04:06:55;13.50;99.90
35531;DHT22;21637;53.352;-6.356;2023-08-17T04:09:21;13.50;99.90
35531;DHT22;21637;53.352;-6.356;2023-08-17T04:11:46;13.60;99.90
35531;DHT22;21637;53.352;-6.356;2023-08-17T04:14:12;13.60;99.90
35531;DHT22;21637;53.352;-6.356;2023-08-17T04:16:39;13.60;99.90
35531;DHT22;21637;53.352;-6.356;2023-08-17T04:19:05;13.60;99.90
35531;DHT22;21637;53.352;-6.356;2023-08-17T04:21:30;13.60;99.90
35531;DHT22;21637;53.352;-6.356;2023-08-17T04:23:56;13.60;99.90
35531;DHT22;21637;53.352;-6.356;2023-08-17T04:26:22;13.60;99.90
35531;DHT22;21637;53.352;-6.356;2023-08-17T04:28:47;13.60;99.90
35531;DHT22;21637;53.352;-6.356;2023-08-17T04:31:13;13.60;99.90
35531;DHT22;21637;53.352;-6.356;2023-08-17T04:33:40;13.60;99.90
35531;DHT22;21637;53.352;-6.356;2023-08-17T04:36:05;13.60;99.90
35531;DHT22;21637;53.352;-6.356;2023-08-17T04:38:31;13.60;99.90
35531;DHT22;21637;53.352;-6.356;2023-08-17T04:40:57;13.60;99.90
35531;DHT22;21637;53.352;-6.356;2023-08-17T04:43:23;13.60;99.90
35531;DHT22;21637;53.352;-6.356;2023-08-17T04:45:48;13.60;99.90
35531;DHT22;21637;53.352;-6.356;2023-08-17T04:48:14;13.50;99.90
35531;DHT22;21637;53.352;-6.356;2023-08-17T04:50:40;13.40;99.90
35531;DHT22;21637;53.352;-6.356;2023-08-17T04:53:05;13.40;99.90
35531;DHT22;21637;53.352;-6.356;2023-08-17T04:55:31;13.40;99.90
35531;DHT22;21637;53.352;-6.356;2023-08-17T04:57:57;13.40;99.90
35531;DHT22;21637;53.352;-6.356;2023-08-17T05:00:23;13.30;99.90
35531;DHT22;21637;53.352;-6.356;2023-08-17T05:02:57;13.30;99.90
35531;DHT22;21637;53.352;-6.356;2023-08-17T05:05:23;13.30;99.90
35531;DHT22;21637;53.352;-6.356;2023-08-17T05:07:49;13.30;99.90
35531;DHT22;21637;53.352;-6.356;2023-08-17T05:10:15;13.30;99.90
35531;DHT22;21637;53.352;-6.356;2023-08-17T05:12:41;13.30;99.90
35531;DHT22;21637;53.352;-6.356;2023-08-17T05:15:07;13.30;99.90
35531;DHT22;21637;53.352;-6.356;2023-08-17T05:17:32;13.40;99.90
35531;DHT22;21637;53.352;-6.356;2023-08-17T05:19:58;13.40;99.90
35531;DHT22;21637;53.352;-6.356;2023-08-17T05:22:24;13.40;99.90
35531;DHT22;21637;53.352;-6.356;2023-08-17T05:24:50;13.40;99.90
35531;DHT22;21637;53.352;-6.356;2023-08-17T05:27:15;13.40;99.90
35531;DHT22;21637;53.352;-6.356;2023-08-17T05:29:41;13.40;99.90
35531;DHT22;21637;53.352;-6.356;2023-08-17T05:32:07;13.50;99.90
35531;DHT22;21637;53.352;-6.356;2023-08-17T05:34:32;13.40;99.90
35531;DHT22;21637;53.352;-6.356;2023-08-17T05:36:58;13.40;99.90
35531;DHT22;21637;53.352;-6.356;2023-08-17T05:39:24;13.50;99.90
35531;DHT22;21637;53.352;-6.356;2023-08-17T05:41:50;13.50;99.90
35531;DHT22;21637;53.352;-6.356;2023-08-17T05:44:15;13.50;99.90
35531;DHT22;21637;53.352;-6.356;2023-08-17T05:46:42;13.50;99.90
35531;DHT22;21637;53.352;-6.356;2023-08-17T05:49:08;13.60;99.90
35531;DHT22;21637;53.352;-6.356;2023-08-17T05:51:34;13.70;99.90
35531;DHT22;21637;53.352;-6.356;2023-08-17T05:53:59;13.90;99.90
35531;DHT22;21637;53.352;-6.356;2023-08-17T05:56:25;14.00;99.90
35531;DHT22;21637;53.352;-6.356;2023-08-17T05:58:51;14.10;99.90
35531;DHT22;21637;53.352;-6.356;2023-08-17T06:01:17;14.20;99.90
35531;DHT22;21637;53.352;-6.356;2023-08-17T06:03:43;14.30;99.90
35531;DHT22;21637;53.352;-6.356;2023-08-17T06:06:09;14.40;99.90
35531;DHT22;21637;53.352;-6.356;2023-08-17T06:08:35;14.50;99.90
35531;DHT22;21637;53.352;-6.356;2023-08-17T06:11:01;14.60;99.90
35531;DHT22;21637;53.352;-6.356;2023-08-17T06:13:26;14.70;99.90
35531;DHT22;21637;53.352;-6.356;2023-08-17T06:15:52;14.90;99.90
35531;DHT22;21637;53.352;-6.356;2023-08-17T06:18:18;15.00;99.90
35531;DHT22;21637;53.352;-6.356;2023-08-17T06:20:45;15.10;99.90
35531;DHT22;21637;53.352;-6.356;2023-08-17T06:23:12;15.10;99.90
35531;DHT22;21637;53.352;-6.356;2023-08-17T06:25:38;15.20;99.90
35531;DHT22;21637;53.352;-6.356;2023-08-17T06:28:06;15.30;99.90
35531;DHT22;21637;53.352;-6.356;2023-08-17T06:30:32;15.50;99.90
35531;DHT22;21637;53.352;-6.356;2023-08-17T06:32:57;15.70;99.90
35531;DHT22;21637;53.352;-6.356;2023-08-17T06:35:24;15.80;99.90
35531;DHT22;21637;53.352;-6.356;2023-08-17T06:37:50;15.90;99.90
35531;DHT22;21637;53.352;-6.356;2023-08-17T06:40:17;16.10;99.90
35531;DHT22;21637;53.352;-6.356;2023-08-17T06:42:42;16.20;99.90
35531;DHT22;21637;53.352;-6.356;2023-08-17T06:45:08;16.30;99.90
35531;DHT22;21637;53.352;-6.356;2023-08-17T06:47:34;16.40;99.90
35531;DHT22;21637;53.352;-6.356;2023-08-17T06:50:00;16.40;99.90
35531;DHT22;21637;53.352;-6.356;2023-08-17T06:52:25;16.50;99.90
35531;DHT22;21637;53.352;-6.356;2023-08-17T06:54:51;16.60;99.90
35531;DHT22;21637;53.352;-6.356;2023-08-17T06:57:17;16.60;99.90
35531;DHT22;21637;53.352;-6.356;2023-08-17T06:59:42;16.60;99.90
35531;DHT22;21637;53.352;-6.356;2023-08-17T07:02:11;16.70;99.90
35531;DHT22;21637;53.352;-6.356;2023-08-17T07:04:37;16.70;99.90
35531;DHT22;21637;53.352;-6.356;2023-08-17T07:07:03;16.80;99.90
35531;DHT22;21637;53.352;-6.356;2023-08-17T07:09:29;16.80;99.90
35531;DHT22;21637;53.352;-6.356;2023-08-17T07:11:54;17.00;99.90
35531;DHT22;21637;53.352;-6.356;2023-08-17T07:14:20;17.10;99.90
35531;DHT22;21637;53.352;-6.356;2023-08-17T07:16:46;17.20;99.90
35531;DHT22;21637;53.352;-6.356;2023-08-17T07:19:11;17.30;99.90
35531;DHT22;21637;53.352;-6.356;2023-08-17T07:21:39;17.40;99.90
35531;DHT22;21637;53.352;-6.356;2023-08-17T07:24:15;17.50;99.90
35531;DHT22;21637;53.352;-6.356;2023-08-17T07:26:41;17.50;99.90
35531;DHT22;21637;53.352;-6.356;2023-08-17T07:29:07;17.40;99.90
35531;DHT22;21637;53.352;-6.356;2023-08-17T07:31:33;17.40;99.90
35531;DHT22;21637;53.352;-6.356;2023-08-17T07:33:59;17.30;99.90
35531;DHT22;21637;53.352;-6.356;2023-08-17T07:36:25;17.30;99.90
35531;DHT22;21637;53.352;-6.356;2023-08-17T07:38:51;17.30;99.90
35531;DHT22;21637;53.352;-6.356;2023-08-17T07:41:17;17.30;99.90
35531;DHT22;21637;53.352;-6.356;2023-08-17T07:43:42;17.30;99.90
35531;DHT22;21637;53.352;-6.356;2023-08-17T07:46:08;17.30;99.90
35531;DHT22;21637;53.352;-6.356;2023-08-17T07:48:34;17.40;99.90
35531;DHT22;21637;53.352;-6.356;2023-08-17T07:51:00;17.40;99.90
35531;DHT22;21637;53.352;-6.356;2023-08-17T07:53:25;17.60;99.90
35531;DHT22;21637;53.352;-6.356;2023-08-17T07:55:51;17.80;99.90
35531;DHT22;21637;53.352;-6.356;2023-08-17T07:58:17;18.00;99.90
35531;DHT22;21637;53.352;-6.356;2023-08-17T08:00:42;18.10;99.90
35531;DHT22;21637;53.352;-6.356;2023-08-17T08:03:09;18.30;99.90
35531;DHT22;21637;53.352;-6.356;2023-08-17T08:05:35;18.40;99.90
35531;DHT22;21637;53.352;-6.356;2023-08-17T08:08:00;18.50;99.90
35531;DHT22;21637;53.352;-6.356;2023-08-17T08:10:27;18.70;99.90
35531;DHT22;21637;53.352;-6.356;2023-08-17T08:12:53;18.70;99.90
35531;DHT22;21637;53.352;-6.356;2023-08-17T08:15:19;18.70;99.90
35531;DHT22;21637;53.352;-6.356;2023-08-17T08:17:45;18.70;99.90
35531;DHT22;21637;53.352;-6.356;2023-08-17T08:20:10;18.70;99.90
35531;DHT22;21637;53.352;-6.356;2023-08-17T08:22:36;18.80;99.90
35531;DHT22;21637;53.352;-6.356;2023-08-17T08:25:02;18.80;99.90
35531;DHT22;21637;53.352;-6.356;2023-08-17T08:27:28;18.90;99.90
35531;DHT22;21637;53.352;-6.356;2023-08-17T08:29:54;19.00;99.90
35531;DHT22;21637;53.352;-6.356;2023-08-17T08:32:19;19.10;99.90
35531;DHT22;21637;53.352;-6.356;2023-08-17T08:34:45;19.00;99.90
35531;DHT22;21637;53.352;-6.356;2023-08-17T08:37:11;19.10;99.90
35531;DHT22;21637;53.352;-6.356;2023-08-17T08:39:53;19.20;99.90
35531;DHT22;21637;53.352;-6.356;2023-08-17T08:42:20;19.30;99.90
35531;DHT22;21637;53.352;-6.356;2023-08-17T08:44:46;19.40;99.90
35531;DHT22;21637;53.352;-6.356;2023-08-17T08:47:12;19.40;99.90
35531;DHT22;21637;53.352;-6.356;2023-08-17T08:49:59;19.50;99.90
35531;DHT22;21637;53.352;-6.356;2023-08-17T08:52:34;19.60;99.90
35531;DHT22;21637;53.352;-6.356;2023-08-17T08:55:12;19.70;99.90
35531;DHT22;21637;53.352;-6.356;2023-08-17T08:57:41;19.70;99.90
35531;DHT22;21637;53.352;-6.356;2023-08-17T09:00:07;19.70;99.90
35531;DHT22;21637;53.352;-6.356;2023-08-17T09:02:33;19.70;99.90
35531;DHT22;21637;53.352;-6.356;2023-08-17T09:04:59;19.70;99.90
35531;DHT22;21637;53.352;-6.356;2023-08-17T09:07:26;19.60;99.90
35531;DHT22;21637;53.352;-6.356;2023-08-17T09:09:55;19.60;99.90
35531;DHT22;21637;53.352;-6.356;2023-08-17T09:12:22;19.70;99.90
35531;DHT22;21637;53.352;-6.356;2023-08-17T09:14:47;19.80;99.90
35531;DHT22;21637;53.352;-6.356;2023-08-17T09:17:13;19.90;99.90
35531;DHT22;21637;53.352;-6.356;2023-08-17T09:19:39;19.90;99.90
35531;DHT22;21637;53.352;-6.356;2023-08-17T09:22:05;19.90;99.90
35531;DHT22;21637;53.352;-6.356;2023-08-17T09:24:37;19.90;99.90
35531;DHT22;21637;53.352;-6.356;2023-08-17T09:27:03;19.80;99.90
35531;DHT22;21637;53.352;-6.356;2023-08-17T09:29:29;19.80;99.90
35531;DHT22;21637;53.352;-6.356;2023-08-17T09:32:06;19.90;99.90
35531;DHT22;21637;53.352;-6.356;2023-08-17T09:34:32;20.00;99.90
35531;DHT22;21637;53.352;-6.356;2023-08-17T09:37:04;20.00;99.90
35531;DHT22;21637;53.352;-6.356;2023-08-17T09:39:31;20.00;99.90
35531;DHT22;21637;53.352;-6.356;2023-08-17T09:41:57;20.10;99.90
35531;DHT22;21637;53.352;-6.356;2023-08-17T09:44:23;20.10;99.90
35531;DHT22;21637;53.352;-6.356;2023-08-17T09:46:48;20.10;99.90
35531;DHT22;21637;53.352;-6.356;2023-08-17T09:49:14;20.00;99.90
35531;DHT22;21637;53.352;-6.356;2023-08-17T09:51:43;20.00;99.90
35531;DHT22;21637;53.352;-6.356;2023-08-17T09:54:21;20.10;99.90
35531;DHT22;21637;53.352;-6.356;2023-08-17T09:56:52;20.20;99.90
35531;DHT22;21637;53.352;-6.356;2023-08-17T09:59:19;20.30;99.90
35531;DHT22;21637;53.352;-6.356;2023-08-17T10:01:47;20.30;99.90
35531;DHT22;21637;53.352;-6.356;2023-08-17T10:04:15;20.30;99.90
35531;DHT22;21637;53.352;-6.356;2023-08-17T10:06:43;20.20;99.90
35531;DHT22;21637;53.352;-6.356;2023-08-17T10:09:11;20.20;99.90
35531;DHT22;21637;53.352;-6.356;2023-08-17T10:11:39;20.20;99.90
35531;DHT22;21637;53.352;-6.356;2023-08-17T10:14:20;20.10;99.90
35531;DHT22;21637;53.352;-6.356;2023-08-17T10:16:51;20.00;99.90
35531;DHT22;21637;53.352;-6.356;2023-08-17T10:19:43;19.90;99.90
35531;DHT22;21637;53.352;-6.356;2023-08-17T10:22:26;19.90;99.90
35531;DHT22;21637;53.352;-6.356;2023-08-17T10:24:56;19.90;99.90
35531;DHT22;21637;53.352;-6.356;2023-08-17T10:27:24;20.00;99.90
35531;DHT22;21637;53.352;-6.356;2023-08-17T10:29:51;20.00;99.90
35531;DHT22;21637;53.352;-6.356;2023-08-17T10:32:18;20.10;99.90
35531;DHT22;21637;53.352;-6.356;2023-08-17T10:34:44;20.10;99.90
35531;DHT22;21637;53.352;-6.356;2023-08-17T10:37:10;20.10;99.90
35531;DHT22;21637;53.352;-6.356;2023-08-17T10:39:46;20.20;99.90
35531;DHT22;21637;53.352;-6.356;2023-08-17T10:42:12;20.20;99.90
35531;DHT22;21637;53.352;-6.356;2023-08-17T10:44:47;20.20;99.90
35531;DHT22;21637;53.352;-6.356;2023-08-17T10:47:19;20.40;99.90
35531;DHT22;21637;53.352;-6.356;2023-08-17T10:49:51;20.50;99.90
35531;DHT22;21637;53.352;-6.356;2023-08-17T10:52:25;20.60;99.90
35531;DHT22;21637;53.352;-6.356;2023-08-17T10:54:52;20.60;99.90
35531;DHT22;21637;53.352;-6.356;2023-08-17T10:57:28;20.60;99.90
35531;DHT22;21637;53.352;-6.356;2023-08-17T11:00:19;20.40;99.90
35531;DHT22;21637;53.352;-6.356;2023-08-17T11:03:14;20.40;99.90
35531;DHT22;21637;53.352;-6.356;2023-08-17T11:05:46;20.50;99.90
35531;DHT22;21637;53.352;-6.356;2023-08-17T11:08:37;20.50;99.90
35531;DHT22;21637;53.352;-6.356;2023-08-17T11:11:10;20.50;99.90
35531;DHT22;21637;53.352;-6.356;2023-08-17T11:13:38;20.50;99.90
35531;DHT22;21637;53.352;-6.356;2023-08-17T11:16:05;20.50;99.90
35531;DHT22;21637;53.352;-6.356;2023-08-17T11:18:32;20.40;99.90
35531;DHT22;21637;53.352;-6.356;2023-08-17T11:20:58;20.30;99.90
35531;DHT22;21637;53.352;-6.356;2023-08-17T11:23:24;20.20;99.90
35531;DHT22;21637;53.352;-6.356;2023-08-17T11:25:52;20.30;99.90
35531;DHT22;21637;53.352;-6.356;2023-08-17T11:28:18;20.30;99.90
35531;DHT22;21637;53.352;-6.356;2023-08-17T11:30:44;20.40;99.90
35531;DHT22;21637;53.352;-6.356;2023-08-17T11:33:10;20.40;99.90
35531;DHT22;21637;53.352;-6.356;2023-08-17T11:35:37;20.50;99.90
35531;DHT22;21637;53.352;-6.356;2023-08-17T11:38:03;20.50;99.90
35531;DHT22;21637;53.352;-6.356;2023-08-17T11:40:31;20.60;99.90
35531;DHT22;21637;53.352;-6.356;2023-08-17T11:42:58;20.60;99.90
35531;DHT22;21637;53.352;-6.356;2023-08-17T11:45:23;20.60;99.90
35531;DHT22;21637;53.352;-6.356;2023-08-17T11:47:49;20.70;99.90
35531;DHT22;21637;53.352;-6.356;2023-08-17T11:50:15;20.80;99.90
35531;DHT22;21637;53.352;-6.356;2023-08-17T11:52:41;20.80;99.90
35531;DHT22;21637;53.352;-6.356;2023-08-17T11:55:08;20.80;99.90
35531;DHT22;21637;53.352;-6.356;2023-08-17T11:57:36;20.90;99.90
35531;DHT22;21637;53.352;-6.356;2023-08-17T12:00:03;20.80;99.90
35531;DHT22;21637;53.352;-6.356;2023-08-17T12:02:30;20.90;99.90
35531;DHT22;21637;53.352;-6.356;2023-08-17T12:04:56;20.90;99.90
35531;DHT22;21637;53.352;-6.356;2023-08-17T12:07:25;21.00;99.90
35531;DHT22;21637;53.352;-6.356;2023-08-17T12:09:52;21.10;99.90
35531;DHT22;21637;53.352;-6.356;2023-08-17T12:12:24;21.20;99.90
35531;DHT22;21637;53.352;-6.356;2023-08-17T12:14:50;21.20;99.90
35531;DHT22;21637;53.352;-6.356;2023-08-17T12:17:19;21.10;99.90
35531;DHT22;21637;53.352;-6.356;2023-08-17T12:19:49;21.00;99.90
35531;DHT22;21637;53.352;-6.356;2023-08-17T12:22:17;20.90;99.90
35531;DHT22;21637;53.352;-6.356;2023-08-17T12:24:43;20.80;99.90
35531;DHT22;21637;53.352;-6.356;2023-08-17T12:27:09;20.70;99.90
35531;DHT22;21637;53.352;-6.356;2023-08-17T12:29:48;20.70;99.90
35531;DHT22;21637;53.352;-6.356;2023-08-17T12:32:15;20.70;99.90
35531;DHT22;21637;53.352;-6.356;2023-08-17T12:34:41;20.60;99.90
35531;DHT22;21637;53.352;-6.356;2023-08-17T12:37:11;20.60;99.90
35531;DHT22;21637;53.352;-6.356;2023-08-17T12:39:38;20.60;99.90
35531;DHT22;21637;53.352;-6.356;2023-08-17T12:42:04;20.50;99.90
35531;DHT22;21637;53.352;-6.356;2023-08-17T12:44:30;20.50;99.90
35531;DHT22;21637;53.352;-6.356;2023-08-17T12:46:56;20.50;99.90
35531;DHT22;21637;53.352;-6.356;2023-08-17T12:49:23;20.60;99.90
35531;DHT22;21637;53.352;-6.356;2023-08-17T12:51:49;20.70;99.90
35531;DHT22;21637;53.352;-6.356;2023-08-17T12:54:15;20.70;99.90
35531;DHT22;21637;53.352;-6.356;2023-08-17T12:56:40;20.70;99.90
35531;DHT22;21637;53.352;-6.356;2023-08-17T12:59:06;20.70;99.90
35531;DHT22;21637;53.352;-6.356;2023-08-17T13:01:32;20.60;99.90
35531;DHT22;21637;53.352;-6.356;2023-08-17T13:03:58;20.70;99.90
35531;DHT22;21637;53.352;-6.356;2023-08-17T13:06:24;20.70;99.90
35531;DHT22;21637;53.352;-6.356;2023-08-17T13:08:50;20.70;99.90
35531;DHT22;21637;53.352;-6.356;2023-08-17T13:11:16;20.90;99.90
35531;DHT22;21637;53.352;-6.356;2023-08-17T13:13:41;21.10;99.90
35531;DHT22;21637;53.352;-6.356;2023-08-17T13:16:07;21.30;99.90
35531;DHT22;21637;53.352;-6.356;2023-08-17T13:18:33;21.60;99.90
35531;DHT22;21637;53.352;-6.356;2023-08-17T13:20:59;21.50;99.90
35531;DHT22;21637;53.352;-6.356;2023-08-17T13:23:24;21.70;99.90
35531;DHT22;21637;53.352;-6.356;2023-08-17T13:25:50;21.80;99.90
35531;DHT22;21637;53.352;-6.356;2023-08-17T13:28:16;21.90;99.90
35531;DHT22;21637;53.352;-6.356;2023-08-17T13:30:41;22.00;99.90
35531;DHT22;21637;53.352;-6.356;2023-08-17T13:33:07;22.00;99.90
35531;DHT22;21637;53.352;-6.356;2023-08-17T13:35:33;21.80;99.90
35531;DHT22;21637;53.352;-6.356;2023-08-17T13:37:59;21.80;99.90
35531;DHT22;21637;53.352;-6.356;2023-08-17T13:40:25;21.80;99.90
35531;DHT22;21637;53.352;-6.356;2023-08-17T13:42:51;21.80;99.90
35531;DHT22;21637;53.352;-6.356;2023-08-17T13:45:17;21.70;99.90
35531;DHT22;21637;53.352;-6.356;2023-08-17T13:47:43;21.70;99.90
35531;DHT22;21637;53.352;-6.356;2023-08-17T13:50:08;21.60;99.90
35531;DHT22;21637;53.352;-6.356;2023-08-17T13:52:34;21.70;99.90
35531;DHT22;21637;53.352;-6.356;2023-08-17T13:55:00;21.70;99.90
35531;DHT22;21637;53.352;-6.356;2023-08-17T13:57:26;21.70;99.90
35531;DHT22;21637;53.352;-6.356;2023-08-17T13:59:52;21.70;99.90
35531;DHT22;21637;53.352;-6.356;2023-08-17T14:02:19;21.90;99.90
35531;DHT22;21637;53.352;-6.356;2023-08-17T14:04:45;21.70;99.90
35531;DHT22;21637;53.352;-6.356;2023-08-17T14:07:10;21.60;99.90
35531;DHT22;21637;53.352;-6.356;2023-08-17T14:09:36;21.60;99.90
35531;DHT22;21637;53.352;-6.356;2023-08-17T14:12:02;21.70;99.90
35531;DHT22;21637;53.352;-6.356;2023-08-17T14:14:30;21.70;99.90
35531;DHT22;21637;53.352;-6.356;2023-08-17T14:16:55;21.70;99.90
35531;DHT22;21637;53.352;-6.356;2023-08-17T14:19:22;21.70;99.90
35531;DHT22;21637;53.352;-6.356;2023-08-17T14:21:48;21.70;99.90
35531;DHT22;21637;53.352;-6.356;2023-08-17T14:24:14;21.80;99.90
35531;DHT22;21637;53.352;-6.356;2023-08-17T14:26:40;21.50;99.90
35531;DHT22;21637;53.352;-6.356;2023-08-17T14:29:05;21.60;99.90
35531;DHT22;21637;53.352;-6.356;2023-08-17T14:31:31;21.30;99.90
35531;DHT22;21637;53.352;-6.356;2023-08-17T14:33:57;21.30;99.90
35531;DHT22;21637;53.352;-6.356;2023-08-17T14:36:23;21.00;99.90
35531;DHT22;21637;53.352;-6.356;2023-08-17T14:38:48;21.10;99.90
35531;DHT22;21637;53.352;-6.356;2023-08-17T14:41:14;21.10;99.90
35531;DHT22;21637;53.352;-6.356;2023-08-17T14:43:40;21.00;99.90
35531;DHT22;21637;53.352;-6.356;2023-08-17T14:46:06;21.10;99.90
35531;DHT22;21637;53.352;-6.356;2023-08-17T14:48:31;21.10;99.90
35531;DHT22;21637;53.352;-6.356;2023-08-17T14:50:57;21.10;99.90
35531;DHT22;21637;53.352;-6.356;2023-08-17T14:53:23;21.10;99.90
35531;DHT22;21637;53.352;-6.356;2023-08-17T14:55:48;21.00;99.90
35531;DHT22;21637;53.352;-6.356;2023-08-17T14:58:14;20.90;99.90
35531;DHT22;21637;53.352;-6.356;2023-08-17T15:00:41;20.90;99.90
35531;DHT22;21637;53.352;-6.356;2023-08-17T15:03:07;20.80;99.90
35531;DHT22;21637;53.352;-6.356;2023-08-17T15:05:33;20.80;99.90
35531;DHT22;21637;53.352;-6.356;2023-08-17T15:08:01;20.80;99.90
35531;DHT22;21637;53.352;-6.356;2023-08-17T15:10:27;20.90;99.90
35531;DHT22;21637;53.352;-6.356;2023-08-17T15:12:53;20.80;99.90
35531;DHT22;21637;53.352;-6.356;2023-08-17T15:15:19;20.90;99.90